Time;durP1;ratioP1;P1;durP2;ratioP2;P2;SDS_P1;SDS_P2;PMS_P1;PMS_P2;Temp;Humidity;BMP_temperature;BMP_pressure;BME280_temperature;BME280_humidity;BME280_pressure;Samples;Min_cycle;Max_cycle;Signal;HPM_P1;HPM_P2
2023/02/03 00:01:57;;;;;;;2.50;1.77;;;10.70;81.20;;;;;;5077420;28;20582;-79
2023/02/03 00:04:22;;;;;;;3.42;1.90;;;10.70;81.20;;;;;;5095803;28;20040;-79
2023/02/03 00:06:49;;;;;;;3.20;1.92;;;10.70;81.30;;;;;;5095868;28;20043;-80
2023/02/03 00:09:16;;;;;;;2.65;1.80;;;10.70;81.20;;;;;;5061212;28;20040;-78
2023/02/03 00:11:41;;;;;;;2.63;1.80;;;10.70;81.20;;;;;;5061685;28;20051;-80
2023/02/03 00:14:07;;;;;;;3.75;2.05;;;10.70;81.20;;;;;;5077389;28;20448;-77
2023/02/03 00:16:34;;;;;;;3.15;1.92;;;10.80;81.30;;;;;;5095417;28;20388;-78
2023/02/03 00:18:59;;;;;;;3.78;2.30;;;10.70;81.30;;;;;;5061046;28;20494;-78
2023/02/03 00:21:25;;;;;;;3.10;1.70;;;10.70;81.30;;;;;;5077190;28;20029;-78
2023/02/03 00:23:51;;;;;;;3.55;1.90;;;10.70;81.30;;;;;;5077476;28;20036;-78
2023/02/03 00:26:17;;;;;;;3.78;1.98;;;10.70;81.30;;;;;;5077714;28;20016;-79
2023/02/03 00:28:44;;;;;;;4.05;2.03;;;10.70;81.30;;;;;;5077491;28;20040;-78
2023/02/03 00:31:20;;;;;;;3.13;1.75;;;10.70;81.30;;;;;;5077413;28;20024;-78
2023/02/03 00:33:46;;;;;;;3.58;2.10;;;10.80;81.30;;;;;;5060244;28;20059;-78
2023/02/03 00:36:12;;;;;;;2.75;1.88;;;10.80;81.30;;;;;;5077283;28;20453;-77
2023/02/03 00:38:38;;;;;;;2.90;1.83;;;10.70;81.30;;;;;;5077148;28;20119;-77
2023/02/03 00:41:04;;;;;;;2.50;1.70;;;10.70;81.30;;;;;;5061176;28;20062;-78
2023/02/03 00:43:29;;;;;;;2.50;1.80;;;10.80;81.30;;;;;;5060233;28;20052;-78
2023/02/03 00:45:55;;;;;;;3.65;1.83;;;10.70;81.20;;;;;;5060014;28;20037;-77
2023/02/03 00:48:21;;;;;;;2.10;1.55;;;10.70;81.30;;;;;;5077047;28;20047;-78
2023/02/03 00:50:47;;;;;;;3.70;1.50;;;10.80;81.30;;;;;;5076845;28;20056;-76
2023/02/03 00:53:12;;;;;;;2.85;1.88;;;10.80;81.30;;;;;;5077475;28;20032;-78
2023/02/03 00:55:38;;;;;;;3.40;1.70;;;10.80;81.30;;;;;;5077460;28;20105;-77
2023/02/03 00:58:04;;;;;;;3.30;1.73;;;10.80;81.30;;;;;;5076427;28;20030;-78
2023/02/03 01:00:30;;;;;;;2.75;1.70;;;10.80;81.30;;;;;;5094930;28;20050;-78
2023/02/03 01:02:56;;;;;;;3.55;1.92;;;10.80;81.30;;;;;;5059800;28;20360;-77
2023/02/03 01:05:22;;;;;;;2.95;1.83;;;10.80;81.30;;;;;;5076913;28;20040;-77
2023/02/03 01:07:48;;;;;;;3.30;1.88;;;10.80;81.30;;;;;;5094530;28;20051;-77
2023/02/03 01:10:14;;;;;;;2.88;1.73;;;10.80;81.30;;;;;;5094826;28;20059;-78
2023/02/03 01:12:40;;;;;;;2.45;1.50;;;10.80;81.30;;;;;;5094389;28;20024;-78
2023/02/03 01:15:06;;;;;;;3.13;1.98;;;10.80;81.30;;;;;;5075834;28;20074;-78
2023/02/03 01:17:32;;;;;;;4.22;1.88;;;10.80;81.30;;;;;;5076421;28;20039;-78
2023/02/03 01:19:58;;;;;;;3.00;1.70;;;10.80;81.30;;;;;;5077062;28;20043;-78
2023/02/03 01:22:23;;;;;;;3.38;1.80;;;10.80;81.30;;;;;;5076293;28;20074;-78
2023/02/03 01:24:49;;;;;;;3.15;1.80;;;10.80;81.30;;;;;;5077068;28;20027;-78
2023/02/03 01:27:15;;;;;;;3.33;1.70;;;10.80;81.30;;;;;;5076381;28;20403;-78
2023/02/03 01:29:40;;;;;;;3.08;1.85;;;10.80;81.30;;;;;;5059519;28;20379;-78
2023/02/03 01:32:06;;;;;;;3.72;1.85;;;10.80;81.30;;;;;;5059746;28;20422;-77
2023/02/03 01:34:34;;;;;;;2.92;1.70;;;10.80;81.30;;;;;;5076090;28;20380;-77
2023/02/03 01:36:59;;;;;;;3.53;1.73;;;10.80;81.30;;;;;;5059141;28;20036;-78
2023/02/03 01:39:27;;;;;;;3.42;2.10;;;10.80;81.30;;;;;;5076117;28;20066;-78
2023/02/03 01:41:54;;;;;;;3.05;1.90;;;10.80;81.30;;;;;;5059588;28;20109;-78
2023/02/03 01:44:46;;;;;;;3.25;1.77;;;10.80;81.30;;;;;;5094142;28;20043;-78
2023/02/03 01:47:17;;;;;;;3.35;2.00;;;10.80;81.40;;;;;;5076299;28;20028;-78
2023/02/03 01:49:53;;;;;;;4.00;1.90;;;10.80;81.30;;;;;;5093958;28;20100;-77
2023/02/03 01:52:19;;;;;;;3.00;1.70;;;10.80;81.30;;;;;;5076209;28;20032;-78
2023/02/03 01:54:48;;;;;;;4.28;1.90;;;10.80;81.30;;;;;;5075668;28;20177;-78
2023/02/03 01:57:32;;;;;;;2.13;1.60;;;10.80;81.30;;;;;;5075927;28;20020;-78
2023/02/03 01:59:59;;;;;;;3.60;2.05;;;10.80;81.40;;;;;;5076038;28;20071;-78
2023/02/03 02:02:27;;;;;;;3.92;2.00;;;10.80;81.30;;;;;;5075978;28;20115;-78
2023/02/03 02:05:12;;;;;;;2.88;1.70;;;10.80;81.30;;;;;;5092738;28;20060;-78
2023/02/03 02:07:40;;;;;;;3.03;1.70;;;10.80;81.40;;;;;;5059000;28;20024;-78
2023/02/03 02:10:06;;;;;;;3.33;1.90;;;10.80;81.30;;;;;;5076677;28;20036;-78
2023/02/03 02:12:31;;;;;;;2.28;1.45;;;10.80;81.30;;;;;;5076326;28;20109;-78
2023/02/03 02:14:58;;;;;;;3.53;1.85;;;10.80;81.30;;;;;;5075578;28;20367;-78
2023/02/03 02:17:58;;;;;;;3.47;1.88;;;10.80;81.30;;;;;;5075664;28;20054;-78
2023/02/03 02:20:57;;;;;;;2.33;1.85;;;10.80;81.40;;;;;;5093717;28;20035;-78
2023/02/03 02:23:54;;;;;;;2.58;1.70;;;10.80;81.30;;;;;;5056191;28;20040;-78
2023/02/03 02:26:31;;;;;;;2.88;1.63;;;10.80;81.30;;;;;;5097121;28;20475;-79
2023/02/03 02:29:06;;;;;;;2.40;1.65;;;10.80;81.30;;;;;;5079662;28;20035;-78
2023/02/03 02:31:44;;;;;;;2.45;1.65;;;10.80;81.30;;;;;;5080448;28;20482;-78
2023/02/03 02:34:23;;;;;;;3.47;1.80;;;10.80;81.30;;;;;;5079952;28;20043;-78
2023/02/03 02:37:09;;;;;;;4.03;1.80;;;10.80;81.30;;;;;;5079729;28;20028;-78
2023/02/03 02:39:48;;;;;;;2.53;1.63;;;10.80;81.40;;;;;;5097722;28;20031;-78
2023/02/03 02:42:25;;;;;;;2.83;1.73;;;10.90;81.40;;;;;;5078893;28;20081;-78
2023/02/03 02:44:56;;;;;;;2.30;1.60;;;10.90;81.40;;;;;;5097565;28;20032;-78
2023/02/03 02:47:23;;;;;;;3.40;1.67;;;10.80;81.30;;;;;;5079669;28;20043;-79
2023/02/03 02:50:10;;;;;;;3.10;1.60;;;10.80;81.30;;;;;;5063482;28;20060;-78
2023/02/03 02:52:40;;;;;;;2.83;1.88;;;10.80;81.30;;;;;;5079420;28;20085;-78
2023/02/03 02:55:30;;;;;;;3.40;1.80;;;10.90;81.40;;;;;;5079193;28;20020;-78
2023/02/03 02:58:06;;;;;;;5.18;2.20;;;10.90;81.30;;;;;;5079432;28;20024;-78
2023/02/03 03:00:35;;;;;;;2.70;1.55;;;10.90;81.30;;;;;;5097185;28;20028;-78
2023/02/03 03:03:23;;;;;;;2.20;1.55;;;10.90;81.30;;;;;;5097113;28;20035;-78
2023/02/03 03:06:02;;;;;;;1.65;1.55;;;10.90;81.30;;;;;;5079198;28;20081;-79
2023/02/03 03:08:42;;;;;;;2.58;1.60;;;10.90;81.30;;;;;;5078557;28;20043;-78
2023/02/03 03:11:09;;;;;;;2.42;1.63;;;10.90;81.30;;;;;;5079884;28;20356;-78
2023/02/03 03:13:41;;;;;;;3.70;2.05;;;10.90;81.20;;;;;;5078683;28;20415;-78
2023/02/03 03:16:10;;;;;;;2.88;1.80;;;10.90;81.30;;;;;;5079004;28;20390;-78
2023/02/03 03:18:45;;;;;;;4.30;1.90;;;10.90;81.30;;;;;;5078800;28;20066;-78
2023/02/03 03:21:16;;;;;;;3.58;1.92;;;10.90;81.30;;;;;;5062226;28;20392;-78
2023/02/03 03:23:46;;;;;;;2.30;1.60;;;11.00;81.30;;;;;;5078545;28;20032;-78
2023/02/03 03:26:22;;;;;;;2.30;1.52;;;10.90;81.30;;;;;;5078344;28;20103;-78
2023/02/03 03:29:05;;;;;;;2.45;1.45;;;10.90;81.30;;;;;;5078745;28;20036;-78
2023/02/03 03:31:31;;;;;;;2.90;1.55;;;10.90;81.30;;;;;;5096681;28;20039;-78
2023/02/03 03:33:56;;;;;;;3.30;1.70;;;10.90;81.20;;;;;;5078476;28;20024;-77
2023/02/03 03:36:55;;;;;;;2.95;1.70;;;10.90;81.30;;;;;;5077345;28;20393;-79
2023/02/03 03:39:42;;;;;;;2.25;1.60;;;10.90;81.30;;;;;;5057747;28;20040;-78
2023/02/03 03:42:27;;;;;;;3.85;1.70;;;10.90;81.20;;;;;;5078109;28;20039;-79
2023/02/03 03:45:04;;;;;;;3.10;1.88;;;10.90;81.20;;;;;;5095372;28;20094;-78
2023/02/03 03:47:32;;;;;;;2.22;1.80;;;10.90;81.20;;;;;;5078204;28;20024;-78
2023/02/03 03:50:00;;;;;;;2.17;1.67;;;10.90;81.20;;;;;;5061955;28;20123;-78
2023/02/03 03:52:31;;;;;;;2.20;1.50;;;10.90;81.30;;;;;;5078030;28;20039;-78
2023/02/03 03:54:59;;;;;;;1.70;1.50;;;10.90;81.20;;;;;;5096359;28;20020;-78
2023/02/03 03:57:34;;;;;;;4.18;1.70;;;11.00;81.30;;;;;;5096488;28;20046;-78
2023/02/03 04:00:02;;;;;;;3.33;1.65;;;10.90;81.20;;;;;;5078163;28;20024;-78
2023/02/03 04:02:39;;;;;;;2.65;1.70;;;10.90;81.30;;;;;;5096280;28;20024;-78
2023/02/03 04:05:07;;;;;;;2.08;1.60;;;11.00;81.30;;;;;;5096097;28;20073;-78
2023/02/03 04:07:44;;;;;;;1.52;1.42;;;10.90;81.20;;;;;;5077745;28;20029;-79
2023/02/03 04:10:20;;;;;;;2.78;1.58;;;10.90;81.30;;;;;;5077920;28;20040;-78
2023/02/03 04:12:46;;;;;;;2.95;1.92;;;10.90;81.20;;;;;;5078072;28;20035;-78
2023/02/03 04:15:12;;;;;;;2.30;1.58;;;11.00;81.20;;;;;;5077882;28;20103;-78
2023/02/03 04:17:38;;;;;;;2.60;1.50;;;10.90;81.20;;;;;;5078051;28;20040;-78
2023/02/03 04:20:04;;;;;;;3.75;1.52;;;10.90;81.20;;;;;;5078458;28;20086;-78
2023/02/03 04:22:30;;;;;;;3.17;1.60;;;10.90;81.20;;;;;;5078211;28;20040;-78
2023/02/03 04:24:57;;;;;;;3.05;1.65;;;10.90;81.20;;;;;;5060407;28;20519;-78
2023/02/03 04:27:24;;;;;;;2.40;1.65;;;11.00;81.30;;;;;;5077586;28;20502;-78
2023/02/03 04:29:51;;;;;;;4.68;1.70;;;10.90;81.20;;;;;;5077192;28;20064;-78
2023/02/03 04:32:17;;;;;;;3.08;1.67;;;11.00;81.30;;;;;;5077386;28;20522;-79
2023/02/03 04:34:42;;;;;;;3.47;1.70;;;11.00;81.30;;;;;;5077090;28;20111;-78
2023/02/03 04:37:08;;;;;;;1.92;1.50;;;11.00;81.30;;;;;;5076993;28;20063;-78
2023/02/03 04:39:34;;;;;;;2.20;1.70;;;11.00;81.30;;;;;;5060544;28;20028;-78
2023/02/03 04:42:00;;;;;;;3.38;1.90;;;11.00;81.30;;;;;;5077073;28;20016;-79
2023/02/03 04:44:26;;;;;;;3.10;1.60;;;11.00;81.30;;;;;;5077134;28;20111;-78
2023/02/03 04:46:51;;;;;;;2.08;1.60;;;11.00;81.90;;;;;;5076941;28;20038;-78
2023/02/03 04:49:17;;;;;;;2.28;1.52;;;11.00;81.20;;;;;;5094404;28;20081;-77
2023/02/03 04:51:43;;;;;;;3.92;1.67;;;11.00;81.30;;;;;;5076916;28;20028;-78
2023/02/03 04:54:10;;;;;;;2.70;1.42;;;11.00;81.30;;;;;;5095185;28;20403;-78
2023/02/03 04:56:37;;;;;;;2.47;1.50;;;11.00;81.20;;;;;;5076258;28;20472;-76
2023/02/03 04:59:03;;;;;;;2.88;1.65;;;11.00;81.20;;;;;;5076727;28;20479;-78
2023/02/03 05:01:28;;;;;;;1.92;1.48;;;11.00;81.20;;;;;;5076741;28;20035;-78
2023/02/03 05:03:54;;;;;;;2.38;1.60;;;11.00;81.20;;;;;;5076550;28;20528;-78
2023/02/03 05:06:25;;;;;;;2.05;1.60;;;11.00;81.20;;;;;;5077253;28;20082;-79
2023/02/03 05:08:52;;;;;;;3.10;1.65;;;11.00;81.20;;;;;;5077170;28;20047;-78
2023/02/03 05:11:18;;;;;;;4.07;1.80;;;11.00;81.20;;;;;;5094160;28;20020;-78
2023/02/03 05:13:43;;;;;;;2.08;1.25;;;11.00;81.20;;;;;;5076643;28;20114;-78
2023/02/03 05:16:09;;;;;;;1.80;1.40;;;11.00;81.20;;;;;;5076263;28;20052;-78
2023/02/03 05:18:35;;;;;;;2.63;1.60;;;11.00;81.10;;;;;;5095186;28;20123;-79
2023/02/03 05:21:00;;;;;;;3.75;1.70;;;11.00;81.20;;;;;;5076593;28;20516;-79
2023/02/03 05:23:26;;;;;;;2.92;1.60;;;11.00;81.10;;;;;;5094749;28;20036;-78
2023/02/03 05:25:52;;;;;;;3.92;1.83;;;11.10;81.20;;;;;;5094434;28;20380;-79
2023/02/03 05:28:18;;;;;;;1.65;1.40;;;11.00;81.10;;;;;;5094349;28;20024;-77
2023/02/03 05:30:43;;;;;;;3.85;1.70;;;11.00;81.20;;;;;;5094053;28;20024;-78
2023/02/03 05:33:09;;;;;;;2.25;1.50;;;11.10;81.20;;;;;;5059703;28;20047;-78
2023/02/03 05:35:35;;;;;;;2.63;1.50;;;11.00;81.20;;;;;;5076736;28;20392;-78
2023/02/03 05:38:01;;;;;;;2.42;1.55;;;11.10;81.20;;;;;;5059432;28;20411;-79
2023/02/03 05:43:11;;;;;;;1.58;1.27;;;11.10;81.20;;;;;;5093855;28;20058;-78
2023/02/03 05:45:36;;;;;;;2.58;1.45;;;11.10;81.10;;;;;;5093035;28;20111;-77
2023/02/03 05:48:02;;;;;;;2.83;1.70;;;11.10;81.20;;;;;;5093543;28;20024;-77
2023/02/03 05:50:32;;;;;;;4.18;2.05;;;11.10;81.10;;;;;;5076053;28;20142;-77
2023/02/03 05:53:06;;;;;;;2.92;1.65;;;11.10;81.20;;;;;;5060155;28;20085;-78
2023/02/03 05:55:33;;;;;;;2.10;1.60;;;11.10;81.10;;;;;;5093526;28;20039;-78
2023/02/03 05:57:59;;;;;;;2.13;1.45;;;11.10;81.10;;;;;;5093502;28;20099;-78
2023/02/03 06:00:26;;;;;;;2.35;1.40;;;11.10;81.10;;;;;;5075219;28;20028;-79
2023/02/03 06:02:53;;;;;;;2.38;1.50;;;11.10;81.00;;;;;;5093784;28;20028;-79
2023/02/03 06:05:20;;;;;;;1.83;1.40;;;11.10;81.10;;;;;;5058802;28;20032;-78
2023/02/03 06:07:46;;;;;;;2.55;1.75;;;11.10;81.10;;;;;;5075370;28;20173;-78
2023/02/03 06:10:12;;;;;;;3.10;1.63;;;11.10;81.00;;;;;;5093487;28;20118;-78
2023/02/03 06:12:38;;;;;;;3.10;1.50;;;11.10;81.00;;;;;;5075980;28;20040;-78
2023/02/03 06:15:04;;;;;;;3.88;1.58;;;11.10;81.00;;;;;;5093585;28;20042;-78
2023/02/03 06:17:31;;;;;;;2.30;1.48;;;11.10;81.00;;;;;;5075281;28;20024;-78
2023/02/03 06:19:56;;;;;;;2.47;1.55;;;11.10;81.00;;;;;;5075637;28;20031;-78
2023/02/03 06:22:22;;;;;;;3.28;1.60;;;11.10;81.00;;;;;;5076339;28;20483;-79
2023/02/03 06:24:48;;;;;;;3.10;1.60;;;11.10;81.00;;;;;;5093706;28;20060;-79
2023/02/03 06:27:14;;;;;;;2.55;1.38;;;11.20;81.00;;;;;;5075460;28;20028;-78
2023/02/03 06:29:41;;;;;;;2.10;1.42;;;11.20;81.00;;;;;;5075460;28;20028;-78
2023/02/03 06:32:08;;;;;;;1.98;1.40;;;11.20;81.00;;;;;;5058923;28;20032;-78
2023/02/03 06:34:34;;;;;;;5.22;2.17;;;11.20;81.00;;;;;;5075690;28;20020;-79
2023/02/03 06:37:00;;;;;;;2.95;1.48;;;11.20;81.00;;;;;;5075102;28;20528;-79
2023/02/03 06:39:26;;;;;;;2.97;1.65;;;11.20;81.00;;;;;;5075635;28;20028;-79
2023/02/03 06:41:51;;;;;;;3.35;1.50;;;11.20;80.90;;;;;;5075280;28;20032;-78
2023/02/03 06:44:17;;;;;;;4.03;1.65;;;11.20;80.90;;;;;;5075053;28;20402;-79
2023/02/03 06:46:43;;;;;;;2.17;1.55;;;11.20;80.90;;;;;;5093835;28;20070;-79
2023/02/03 06:49:09;;;;;;;3.85;1.63;;;11.20;80.90;;;;;;5075182;28;20039;-79
2023/02/03 06:51:35;;;;;;;2.15;1.40;;;11.20;80.90;;;;;;5058780;28;20029;-78
2023/02/03 06:54:04;;;;;;;3.50;1.85;;;11.20;80.90;;;;;;5075262;28;20024;-78
2023/02/03 06:56:30;;;;;;;1.92;1.48;;;11.20;80.90;;;;;;5093182;28;20016;-76
2023/02/03 06:58:57;;;;;;;2.63;1.63;;;11.20;80.90;;;;;;5075543;28;20035;-78
2023/02/03 07:01:24;;;;;;;2.78;1.65;;;11.20;80.90;;;;;;5093100;28;20509;-77
2023/02/03 07:03:50;;;;;;;4.03;1.90;;;11.20;80.90;;;;;;5058465;28;20365;-79
2023/02/03 07:06:16;;;;;;;2.80;1.60;;;11.30;81.00;;;;;;5093243;28;20024;-78
2023/02/03 07:08:42;;;;;;;3.38;1.80;;;11.20;80.90;;;;;;5058257;28;20468;-78
2023/02/03 07:11:09;;;;;;;2.97;1.42;;;11.20;80.90;;;;;;5060350;28;20052;-78
2023/02/03 07:13:35;;;;;;;2.92;2.00;;;11.20;80.90;;;;;;5079169;28;20032;-78
2023/02/03 07:16:00;;;;;;;2.20;1.55;;;11.30;80.90;;;;;;5078449;28;20024;-78
2023/02/03 07:18:26;;;;;;;3.50;1.92;;;11.20;80.90;;;;;;5079428;28;20127;-77
2023/02/03 07:20:52;;;;;;;2.92;1.42;;;11.20;80.90;;;;;;5078935;28;20056;-78
2023/02/03 07:23:18;;;;;;;4.00;1.60;;;11.20;80.80;;;;;;5095547;28;20047;-79
2023/02/03 07:25:44;;;;;;;3.60;1.63;;;11.30;80.90;;;;;;5078542;28;20035;-79
2023/02/03 07:28:10;;;;;;;3.33;1.67;;;11.20;80.90;;;;;;5061685;28;20032;-78
2023/02/03 07:30:36;;;;;;;3.13;1.52;;;11.20;80.80;;;;;;5096480;28;20485;-78
2023/02/03 07:33:02;;;;;;;3.50;1.58;;;11.30;80.90;;;;;;5079036;28;20064;-78
2023/02/03 07:35:27;;;;;;;3.42;1.75;;;11.30;80.90;;;;;;5078330;28;20077;-78
2023/02/03 07:37:53;;;;;;;2.55;1.60;;;11.30;80.90;;;;;;5078245;28;20020;-78
2023/02/03 07:40:19;;;;;;;4.72;1.70;;;11.30;81.50;;;;;;5078480;28;20036;-78
2023/02/03 07:42:47;;;;;;;4.13;1.75;;;11.20;80.80;;;;;;5077936;28;20051;-78
2023/02/03 07:45:15;;;;;;;2.55;1.52;;;11.30;80.90;;;;;;5078556;28;20146;-78
2023/02/03 07:47:42;;;;;;;2.40;1.60;;;11.30;80.90;;;;;;5078049;28;20036;-76
2023/02/03 07:50:09;;;;;;;3.17;1.60;;;11.30;80.90;;;;;;5078118;28;20024;-77
2023/02/03 07:52:35;;;;;;;2.97;1.50;;;11.30;80.90;;;;;;5078427;28;20158;-77
2023/02/03 07:55:01;;;;;;;4.07;1.70;;;11.30;80.90;;;;;;5078453;28;20036;-77
2023/02/03 07:57:27;;;;;;;2.65;1.65;;;11.30;80.80;;;;;;5077604;28;20445;-78
2023/02/03 07:59:53;;;;;;;3.40;1.85;;;11.30;80.80;;;;;;5061530;28;20043;-79
2023/02/03 08:02:18;;;;;;;3.47;1.50;;;11.30;80.80;;;;;;5077793;28;20059;-78
2023/02/03 08:04:44;;;;;;;3.85;1.60;;;11.30;80.80;;;;;;5061775;28;20058;-78
2023/02/03 08:07:10;;;;;;;3.42;1.60;;;11.30;80.80;;;;;;5095686;28;20024;-79
2023/02/03 08:09:36;;;;;;;2.42;1.55;;;11.30;80.80;;;;;;5077506;28;20028;-78
2023/02/03 08:12:02;;;;;;;3.53;1.85;;;11.30;80.80;;;;;;5094643;28;20032;-78
2023/02/03 08:14:27;;;;;;;2.33;1.60;;;11.30;80.80;;;;;;5077520;28;20032;-78
2023/02/03 08:16:53;;;;;;;3.58;1.65;;;11.30;80.80;;;;;;5077641;28;20028;-78
2023/02/03 08:19:19;;;;;;;3.75;1.77;;;11.30;80.80;;;;;;5077694;28;20036;-78
2023/02/03 08:21:44;;;;;;;3.28;1.80;;;11.30;80.80;;;;;;5077502;28;20039;-77
2023/02/03 08:24:10;;;;;;;2.67;1.40;;;11.30;80.80;;;;;;5094854;28;20039;-78
2023/02/03 08:26:36;;;;;;;2.63;1.63;;;11.30;80.80;;;;;;5077553;28;20085;-78
2023/02/03 08:29:02;;;;;;;3.28;1.92;;;11.30;80.80;;;;;;5095540;28;20441;-78
2023/02/03 08:31:29;;;;;;;2.50;1.85;;;11.30;80.80;;;;;;5094112;28;20032;-78
2023/02/03 08:33:55;;;;;;;3.00;1.75;;;11.30;80.80;;;;;;5095387;28;20468;-78
2023/02/03 08:36:21;;;;;;;2.47;1.80;;;11.30;80.80;;;;;;5094415;28;20054;-77
2023/02/03 08:38:46;;;;;;;2.20;1.70;;;11.30;80.70;;;;;;5094365;28;20081;-79
2023/02/03 08:41:15;;;;;;;4.45;2.03;;;11.30;80.70;;;;;;5077874;28;20417;-79
2023/02/03 08:43:40;;;;;;;2.85;1.63;;;11.40;80.80;;;;;;5076608;28;20144;-77
2023/02/03 08:46:09;;;;;;;3.00;1.80;;;11.40;80.80;;;;;;5060484;28;20100;-77
2023/02/03 08:48:35;;;;;;;4.25;1.80;;;11.40;80.80;;;;;;5076929;28;20068;-77
2023/02/03 08:51:00;;;;;;;4.15;1.70;;;11.40;80.80;;;;;;5077597;28;20082;-77
2023/02/03 08:53:26;;;;;;;2.58;1.70;;;11.40;80.70;;;;;;5077007;28;20035;-77
2023/02/03 08:55:53;;;;;;;3.40;1.60;;;11.40;80.80;;;;;;5060326;28;20039;-78
2023/02/03 08:58:18;;;;;;;3.58;1.58;;;11.40;80.80;;;;;;5077585;28;20375;-78
2023/02/03 09:00:46;;;;;;;5.03;1.67;;;11.40;80.80;;;;;;5077447;28;20104;-78
2023/02/03 09:03:12;;;;;;;4.30;1.80;;;11.40;80.80;;;;;;5076540;28;20076;-77
2023/02/03 09:05:38;;;;;;;2.65;1.85;;;11.40;80.80;;;;;;5093915;28;20105;-77
2023/02/03 09:08:04;;;;;;;3.08;1.80;;;11.40;80.80;;;;;;5060106;28;20039;-77
2023/02/03 09:10:29;;;;;;;4.70;1.80;;;11.40;80.80;;;;;;5076405;28;20025;-77
2023/02/03 09:12:55;;;;;;;3.20;1.88;;;11.40;80.80;;;;;;5076560;28;20020;-78
2023/02/03 09:15:21;;;;;;;4.15;1.95;;;11.40;80.80;;;;;;5076894;28;20114;-78
2023/02/03 09:17:47;;;;;;;1.77;1.60;;;11.40;80.80;;;;;;5060028;28;20024;-78
2023/02/03 09:20:13;;;;;;;3.53;1.90;;;11.40;80.80;;;;;;5059649;28;20407;-78
2023/02/03 09:22:39;;;;;;;2.47;1.52;;;11.40;80.80;;;;;;5094136;28;20105;-77
2023/02/03 09:25:06;;;;;;;3.08;2.05;;;11.40;80.80;;;;;;5076447;28;20032;-77
2023/02/03 09:27:32;;;;;;;2.58;1.60;;;11.40;80.80;;;;;;5093318;28;20047;-77
2023/02/03 09:29:57;;;;;;;2.97;1.60;;;11.40;80.70;;;;;;5093154;28;20444;-77
2023/02/03 09:32:23;;;;;;;2.47;1.50;;;11.40;80.70;;;;;;5094324;28;20034;-77
2023/02/03 09:34:49;;;;;;;3.50;1.83;;;11.40;80.80;;;;;;5075056;28;20399;-77
2023/02/03 09:37:15;;;;;;;2.80;1.48;;;11.40;80.70;;;;;;5075984;28;20032;-77
2023/02/03 09:39:41;;;;;;;2.80;1.80;;;11.40;80.70;;;;;;5076270;28;20035;-77
2023/02/03 09:42:06;;;;;;;2.55;1.83;;;11.40;80.70;;;;;;5094287;28;20023;-77
2023/02/03 09:44:54;;;;;;;3.22;1.67;;;11.40;80.80;;;;;;5076198;28;20075;-77
2023/02/03 09:47:28;;;;;;;3.05;1.70;;;11.40;80.80;;;;;;5075601;28;20024;-78
2023/02/03 09:50:02;;;;;;;2.38;1.50;;;11.50;80.80;;;;;;5093705;28;20040;-76
2023/02/03 09:52:32;;;;;;;3.17;1.85;;;11.50;80.80;;;;;;5093828;28;20503;-77
2023/02/03 09:55:08;;;;;;;3.47;1.55;;;11.50;80.80;;;;;;5075789;28;20020;-77
2023/02/03 09:57:41;;;;;;;3.10;1.52;;;11.50;80.80;;;;;;5094465;28;20031;-77
2023/02/03 10:00:21;;;;;;;2.97;1.90;;;11.50;80.80;;;;;;5075612;28;20031;-78
2023/02/03 10:03:23;;;;;;;2.08;1.60;;;11.50;80.80;;;;;;5094145;28;20028;-77
2023/02/03 10:06:14;;;;;;;1.88;1.60;;;11.50;80.80;;;;;;5085279;28;20035;-78
2023/02/03 10:09:02;;;;;;;3.50;1.85;;;11.50;80.80;;;;;;5076318;28;20024;-78
2023/02/03 10:11:55;;;;;;;2.97;1.77;;;11.50;80.80;;;;;;5057234;28;20465;-77
2023/02/03 10:14:27;;;;;;;2.28;1.67;;;11.50;80.80;;;;;;5075595;28;20031;-79
2023/02/03 10:16:59;;;;;;;2.97;1.67;;;11.50;80.80;;;;;;5093346;28;20545;-77
2023/02/03 10:19:48;;;;;;;2.58;1.90;;;11.50;80.80;;;;;;5059139;28;20084;-77
2023/02/03 10:22:29;;;;;;;2.13;1.50;;;11.50;80.80;;;;;;5076515;28;20036;-78
2023/02/03 10:25:09;;;;;;;2.88;1.50;;;11.60;80.90;;;;;;5093225;28;20387;-77
2023/02/03 10:27:37;;;;;;;2.15;1.35;;;11.60;80.90;;;;;;5076232;28;20024;-78
2023/02/03 10:30:03;;;;;;;2.00;1.40;;;11.50;80.90;;;;;;5058592;28;20032;-78
2023/02/03 10:32:29;;;;;;;1.52;1.40;;;11.60;80.90;;;;;;5075312;28;20498;-78
2023/02/03 10:34:55;;;;;;;2.55;1.67;;;11.50;80.80;;;;;;5075420;28;20073;-78
2023/02/03 10:37:30;;;;;;;2.92;1.70;;;11.60;80.90;;;;;;5075192;28;20040;-77
2023/02/03 10:39:58;;;;;;;2.13;1.60;;;11.60;80.90;;;;;;5076054;28;20119;-78
2023/02/03 10:42:24;;;;;;;1.85;1.50;;;11.60;80.90;;;;;;5092867;28;20030;-78
2023/02/03 10:44:58;;;;;;;2.90;1.90;;;11.60;80.90;;;;;;5076008;28;20055;-78
2023/02/03 10:47:33;;;;;;;2.50;1.60;;;11.60;80.90;;;;;;5097380;28;20040;-78
2023/02/03 10:50:06;;;;;;;2.03;1.60;;;11.70;80.90;;;;;;5079529;28;20036;-78
2023/02/03 10:52:34;;;;;;;2.30;1.60;;;11.60;80.90;;;;;;5097821;28;20085;-78
2023/02/03 10:55:21;;;;;;;2.58;1.70;;;11.60;80.90;;;;;;5062202;28;20443;-78
2023/02/03 10:57:48;;;;;;;3.65;1.50;;;11.70;81.10;;;;;;5097157;28;20078;-78
2023/02/03 11:00:17;;;;;;;2.58;1.67;;;11.70;81.50;;;;;;5079260;28;20028;-78
2023/02/03 11:02:43;;;;;;;2.13;1.42;;;11.70;81.00;;;;;;5062249;28;20036;-78
2023/02/03 11:05:23;;;;;;;3.13;1.90;;;11.70;81.00;;;;;;5079134;28;20027;-79
2023/02/03 11:07:50;;;;;;;2.55;1.60;;;11.70;80.90;;;;;;5062696;28;20028;-79
2023/02/03 11:10:38;;;;;;;3.08;1.50;;;11.70;80.90;;;;;;5097239;28;20040;-79
2023/02/03 11:13:24;;;;;;;3.25;1.85;;;11.70;81.00;;;;;;5097096;28;20024;-79
2023/02/03 11:15:52;;;;;;;3.08;1.90;;;11.70;80.90;;;;;;5079125;28;20085;-79
2023/02/03 11:18:46;;;;;;;2.33;1.52;;;11.70;80.90;;;;;;5062156;28;20024;-78
2023/02/03 11:21:23;;;;;;;2.00;1.40;;;11.80;81.00;;;;;;5097093;28;20066;-77
2023/02/03 11:24:05;;;;;;;1.52;1.33;;;11.70;80.90;;;;;;5078538;28;20064;-78
2023/02/03 11:26:44;;;;;;;2.00;1.25;;;11.70;81.00;;;;;;5078527;28;20028;-77
2023/02/03 11:29:34;;;;;;;2.47;1.58;;;11.70;80.90;;;;;;5096425;28;20036;-80
2023/02/03 11:32:32;;;;;;;2.78;2.13;;;11.80;81.10;;;;;;5089385;28;20105;-77
2023/02/03 11:35:16;;;;;;;2.13;1.55;;;11.80;81.00;;;;;;5079292;28;20031;-77
2023/02/03 11:37:47;;;;;;;2.50;1.40;;;11.80;81.00;;;;;;5078602;28;20028;-78
2023/02/03 11:40:18;;;;;;;2.33;1.67;;;11.80;81.00;;;;;;5078117;28;20055;-77
2023/02/03 11:42:58;;;;;;;1.92;1.30;;;11.80;81.00;;;;;;5077658;28;20537;-78
2023/02/03 11:45:44;;;;;;;2.15;1.45;;;11.80;81.00;;;;;;5096498;28;20032;-77
2023/02/03 11:48:10;;;;;;;2.13;1.60;;;11.80;81.00;;;;;;5077353;28;20035;-78
2023/02/03 11:50:55;;;;;;;2.38;1.60;;;11.80;80.90;;;;;;5077935;28;20377;-76
2023/02/03 11:53:43;;;;;;;2.28;1.50;;;11.90;81.00;;;;;;5060915;28;20085;-77
2023/02/03 11:56:43;;;;;;;2.22;1.42;;;11.90;81.00;;;;;;5095532;28;20027;-78
2023/02/03 11:59:39;;;;;;;1.85;1.40;;;11.90;81.00;;;;;;5077297;28;20103;-78
2023/02/03 12:02:08;;;;;;;;;;;11.90;81.00;;;;;;5078687;28;20048;-78
2023/02/03 12:04:55;;;;;;;1.50;1.40;;;11.90;80.90;;;;;;5096222;28;19911;-78
2023/02/03 12:07:27;;;;;;;1.77;1.60;;;11.90;80.80;;;;;;5077742;28;20028;-78
2023/02/03 12:09:58;;;;;;;2.50;1.67;;;11.90;80.90;;;;;;5095512;28;20035;-78
2023/02/03 12:12:39;;;;;;;2.17;1.70;;;11.90;81.00;;;;;;5078890;28;20063;-78
2023/02/03 12:15:31;;;;;;;2.80;1.50;;;12.00;81.10;;;;;;5096128;28;20110;-78
2023/02/03 12:18:09;;;;;;;2.85;1.65;;;12.00;81.10;;;;;;5049397;28;20039;-77
2023/02/03 12:20:46;;;;;;;1.52;1.42;;;12.00;81.10;;;;;;5077359;28;20028;-78
2023/02/03 12:23:24;;;;;;;2.92;1.60;;;12.00;81.00;;;;;;5096079;28;20107;-78
2023/02/03 12:25:56;;;;;;;2.85;1.63;;;12.00;81.00;;;;;;5077764;28;20337;-78
2023/02/03 12:28:40;;;;;;;3.10;1.77;;;12.00;80.90;;;;;;5095341;28;20035;-78
2023/02/03 12:31:30;;;;;;;2.22;1.65;;;12.10;81.10;;;;;;5061114;28;20372;-77
2023/02/03 12:34:17;;;;;;;2.55;1.73;;;12.10;81.00;;;;;;5095681;28;20028;-78
2023/02/03 12:36:56;;;;;;;3.03;1.60;;;12.10;81.00;;;;;;5077890;28;20035;-77
2023/02/03 12:39:32;;;;;;;4.05;1.92;;;12.10;81.60;;;;;;5095996;28;20039;-78
2023/02/03 12:42:09;;;;;;;2.17;1.52;;;12.10;81.00;;;;;;5077822;28;20028;-77
2023/02/03 12:44:45;;;;;;;1.60;1.50;;;12.10;80.90;;;;;;5095825;28;20040;-77
2023/02/03 12:47:27;;;;;;;2.33;1.60;;;12.20;81.00;;;;;;5076949;28;20032;-78
2023/02/03 12:49:58;;;;;;;1.92;1.35;;;12.20;81.00;;;;;;5077257;28;20114;-77
2023/02/03 12:52:31;;;;;;;2.45;1.60;;;12.20;80.90;;;;;;5076638;28;20063;-78
2023/02/03 12:55:05;;;;;;;2.63;1.92;;;12.20;81.00;;;;;;5076680;28;20082;-77
2023/02/03 12:57:53;;;;;;;2.95;1.50;;;12.20;81.00;;;;;;5077208;28;20357;-77
2023/02/03 13:00:33;;;;;;;2.95;1.67;;;12.20;81.00;;;;;;5077078;28;20106;-78
2023/02/03 13:03:10;;;;;;;1.90;1.58;;;12.20;81.00;;;;;;5059868;28;20028;-78
2023/02/03 13:05:41;;;;;;;1.90;1.65;;;12.30;81.00;;;;;;5076952;28;20093;-78
2023/02/03 13:08:34;;;;;;;2.58;1.77;;;12.20;80.90;;;;;;5094656;28;20463;-78
2023/02/03 13:11:16;;;;;;;2.58;1.70;;;12.30;81.10;;;;;;5076875;28;20032;-78